sensor_id;sensor_type;location;lat;lon;timestamp;pressure;altitude;pressure_sealevel;temperature;humidity
66430;BME280;53242;51.694;10.006;2022-12-07T00:01:08;99458.69;;;3.00;87.54
66430;BME280;53242;51.694;10.006;2022-12-07T00:03:30;99452.75;;;3.07;87.18
66430;BME280;53242;51.694;10.006;2022-12-07T00:05:57;99456.75;;;3.02;88.00
66430;BME280;53242;51.694;10.006;2022-12-07T00:08:19;99451.56;;;3.02;88.02
66430;BME280;53242;51.694;10.006;2022-12-07T00:10:42;99451.16;;;2.96;87.87
66430;BME280;53242;51.694;10.006;2022-12-07T00:13:04;99445.88;;;3.06;87.71
66430;BME280;53242;51.694;10.006;2022-12-07T00:15:26;99445.66;;;3.00;87.95
66430;BME280;53242;51.694;10.006;2022-12-07T00:17:49;99438.44;;;3.11;87.76
66430;BME280;53242;51.694;10.006;2022-12-07T00:20:11;99445.94;;;2.96;88.14
66430;BME280;53242;51.694;10.006;2022-12-07T00:22:33;99434.19;;;2.92;87.99
66430;BME280;53242;51.694;10.006;2022-12-07T00:24:56;99434.03;;;2.94;88.46
66430;BME280;53242;51.694;10.006;2022-12-07T00:27:18;99428.47;;;3.07;88.53
66430;BME280;53242;51.694;10.006;2022-12-07T00:29:40;99427.56;;;2.98;88.32
66430;BME280;53242;51.694;10.006;2022-12-07T00:32:03;99419.31;;;3.03;88.17
66430;BME280;53242;51.694;10.006;2022-12-07T00:34:25;99418.78;;;2.99;88.33
66430;BME280;53242;51.694;10.006;2022-12-07T00:36:48;99418.66;;;2.91;88.74
66430;BME280;53242;51.694;10.006;2022-12-07T00:39:11;99415.03;;;3.02;88.48
66430;BME280;53242;51.694;10.006;2022-12-07T00:41:33;99415.13;;;3.10;87.97
66430;BME280;53242;51.694;10.006;2022-12-07T00:43:56;99417.84;;;2.90;88.69
66430;BME280;53242;51.694;10.006;2022-12-07T00:46:20;99410.22;;;3.07;88.26
66430;BME280;53242;51.694;10.006;2022-12-07T00:48:42;99414.91;;;3.03;88.27
66430;BME280;53242;51.694;10.006;2022-12-07T00:51:05;99405.53;;;3.10;88.35
66430;BME280;53242;51.694;10.006;2022-12-07T00:53:28;99409.72;;;2.93;88.76
66430;BME280;53242;51.694;10.006;2022-12-07T00:55:50;99405.59;;;3.01;88.83
66430;BME280;53242;51.694;10.006;2022-12-07T00:58:14;99403.41;;;2.96;88.45
66430;BME280;53242;51.694;10.006;2022-12-07T01:00:39;99400.16;;;2.94;89.04
66430;BME280;53242;51.694;10.006;2022-12-07T01:03:02;99391.47;;;2.93;88.89
66430;BME280;53242;51.694;10.006;2022-12-07T01:05:24;99398.81;;;2.90;89.05
66430;BME280;53242;51.694;10.006;2022-12-07T01:07:47;99393.72;;;2.88;88.69
66430;BME280;53242;51.694;10.006;2022-12-07T01:10:09;99391.09;;;2.88;89.17
66430;BME280;53242;51.694;10.006;2022-12-07T01:12:32;99394.59;;;2.79;89.29
66430;BME280;53242;51.694;10.006;2022-12-07T01:14:54;99403.75;;;2.83;89.35
66430;BME280;53242;51.694;10.006;2022-12-07T01:17:17;99394.97;;;2.84;89.20
66430;BME280;53242;51.694;10.006;2022-12-07T01:19:39;99394.41;;;2.90;89.20
66430;BME280;53242;51.694;10.006;2022-12-07T01:22:02;99389.38;;;2.79;89.12
66430;BME280;53242;51.694;10.006;2022-12-07T01:24:24;99393.47;;;2.82;89.04
66430;BME280;53242;51.694;10.006;2022-12-07T01:26:49;99385.16;;;2.96;88.70
66430;BME280;53242;51.694;10.006;2022-12-07T01:29:11;99383.66;;;2.93;88.42
66430;BME280;53242;51.694;10.006;2022-12-07T01:31:33;99382.63;;;2.86;88.87
66430;BME280;53242;51.694;10.006;2022-12-07T01:33:58;99386.41;;;2.74;89.11
66430;BME280;53242;51.694;10.006;2022-12-07T01:36:23;99386.72;;;2.89;89.00
66430;BME280;53242;51.694;10.006;2022-12-07T01:38:47;99376.56;;;2.86;88.73
66430;BME280;53242;51.694;10.006;2022-12-07T01:41:11;99380.31;;;3.01;88.71
66430;BME280;53242;51.694;10.006;2022-12-07T01:43:34;99377.34;;;2.96;89.02
66430;BME280;53242;51.694;10.006;2022-12-07T01:45:57;99378.59;;;2.92;89.01
66430;BME280;53242;51.694;10.006;2022-12-07T01:48:28;99380.41;;;2.91;89.32
66430;BME280;53242;51.694;10.006;2022-12-07T01:50:51;99380.84;;;2.87;89.67
66430;BME280;53242;51.694;10.006;2022-12-07T01:53:16;99388.44;;;2.98;89.56
66430;BME280;53242;51.694;10.006;2022-12-07T01:55:42;99377.94;;;2.72;89.99
66430;BME280;53242;51.694;10.006;2022-12-07T01:58:06;99379.84;;;2.70;90.30
66430;BME280;53242;51.694;10.006;2022-12-07T02:00:28;99374.44;;;2.81;90.69
66430;BME280;53242;51.694;10.006;2022-12-07T02:03:05;99375.06;;;2.65;91.02
66430;BME280;53242;51.694;10.006;2022-12-07T02:05:28;99369.00;;;2.74;90.74
66430;BME280;53242;51.694;10.006;2022-12-07T02:07:53;99371.09;;;2.89;90.43
66430;BME280;53242;51.694;10.006;2022-12-07T02:12:42;99364.66;;;2.83;90.28
66430;BME280;53242;51.694;10.006;2022-12-07T02:15:07;99354.16;;;2.75;90.44
66430;BME280;53242;51.694;10.006;2022-12-07T02:17:46;99358.50;;;2.84;90.29
66430;BME280;53242;51.694;10.006;2022-12-07T02:20:27;99353.97;;;2.86;90.41
66430;BME280;53242;51.694;10.006;2022-12-07T02:28:07;99351.19;;;2.88;90.06
66430;BME280;53242;51.694;10.006;2022-12-07T02:30:37;99352.75;;;2.99;90.04
66430;BME280;53242;51.694;10.006;2022-12-07T02:33:14;99354.56;;;2.98;89.53
66430;BME280;53242;51.694;10.006;2022-12-07T02:35:43;99348.38;;;2.99;89.62
66430;BME280;53242;51.694;10.006;2022-12-07T02:38:16;99347.16;;;2.93;89.37
66430;BME280;53242;51.694;10.006;2022-12-07T02:40:50;99355.31;;;3.08;89.39
66430;BME280;53242;51.694;10.006;2022-12-07T02:43:24;99346.34;;;3.11;89.35
66430;BME280;53242;51.694;10.006;2022-12-07T02:45:50;99346.72;;;3.16;89.44
66430;BME280;53242;51.694;10.006;2022-12-07T02:48:16;99353.28;;;3.20;89.24
66430;BME280;53242;51.694;10.006;2022-12-07T02:50:44;99342.56;;;3.23;88.88
66430;BME280;53242;51.694;10.006;2022-12-07T02:55:52;99335.09;;;3.28;88.83
66430;BME280;53242;51.694;10.006;2022-12-07T03:01:11;99340.38;;;3.19;89.27
66430;BME280;53242;51.694;10.006;2022-12-07T03:03:40;99339.13;;;3.23;89.08
66430;BME280;53242;51.694;10.006;2022-12-07T03:06:27;99338.97;;;3.24;89.01
66430;BME280;53242;51.694;10.006;2022-12-07T03:11:42;99335.47;;;3.34;88.88
66430;BME280;53242;51.694;10.006;2022-12-07T03:14:21;99335.09;;;3.28;89.00
66430;BME280;53242;51.694;10.006;2022-12-07T03:17:10;99335.31;;;3.35;89.43
66430;BME280;53242;51.694;10.006;2022-12-07T03:19:35;99329.03;;;3.46;88.75
66430;BME280;53242;51.694;10.006;2022-12-07T03:22:12;99324.28;;;3.41;88.85
66430;BME280;53242;51.694;10.006;2022-12-07T03:24:39;99322.63;;;3.40;88.95
66430;BME280;53242;51.694;10.006;2022-12-07T03:27:17;99315.94;;;3.38;89.29
66430;BME280;53242;51.694;10.006;2022-12-07T03:29:51;99320.09;;;3.31;89.23
66430;BME280;53242;51.694;10.006;2022-12-07T03:32:24;99323.84;;;3.28;89.51
66430;BME280;53242;51.694;10.006;2022-12-07T03:34:57;99310.03;;;3.36;89.82
66430;BME280;53242;51.694;10.006;2022-12-07T03:37:29;99321.16;;;3.20;89.40
66430;BME280;53242;51.694;10.006;2022-12-07T03:40:15;99321.31;;;3.36;89.44
66430;BME280;53242;51.694;10.006;2022-12-07T03:42:40;99307.75;;;3.33;89.51
66430;BME280;53242;51.694;10.006;2022-12-07T03:45:04;99307.50;;;3.44;89.39
66430;BME280;53242;51.694;10.006;2022-12-07T03:47:31;99315.16;;;3.45;89.43
66430;BME280;53242;51.694;10.006;2022-12-07T03:50:00;99317.13;;;3.25;89.58
66430;BME280;53242;51.694;10.006;2022-12-07T03:55:00;99307.25;;;3.37;89.50
66430;BME280;53242;51.694;10.006;2022-12-07T03:57:26;99321.94;;;3.38;89.17
66430;BME280;53242;51.694;10.006;2022-12-07T03:59:50;99321.06;;;3.29;89.43
66430;BME280;53242;51.694;10.006;2022-12-07T04:02:13;99317.22;;;3.34;89.51
66430;BME280;53242;51.694;10.006;2022-12-07T04:04:36;99317.81;;;3.27;89.67
66430;BME280;53242;51.694;10.006;2022-12-07T04:06:59;99318.81;;;3.35;89.75
66430;BME280;53242;51.694;10.006;2022-12-07T04:09:21;99309.06;;;3.37;89.50
66430;BME280;53242;51.694;10.006;2022-12-07T04:11:44;99311.25;;;3.23;90.11
66430;BME280;53242;51.694;10.006;2022-12-07T04:14:06;99314.97;;;3.39;89.48
66430;BME280;53242;51.694;10.006;2022-12-07T04:16:56;99313.00;;;3.41;89.09
66430;BME280;53242;51.694;10.006;2022-12-07T04:19:20;99316.94;;;3.45;89.05
66430;BME280;53242;51.694;10.006;2022-12-07T04:21:43;99321.19;;;3.46;88.70
66430;BME280;53242;51.694;10.006;2022-12-07T04:24:05;99315.38;;;3.52;88.73
66430;BME280;53242;51.694;10.006;2022-12-07T04:26:28;99319.66;;;3.35;89.06
66430;BME280;53242;51.694;10.006;2022-12-07T04:28:50;99327.31;;;3.37;88.94
66430;BME280;53242;51.694;10.006;2022-12-07T04:31:12;99323.81;;;3.46;88.72
66430;BME280;53242;51.694;10.006;2022-12-07T04:33:35;99315.38;;;3.52;88.47
66430;BME280;53242;51.694;10.006;2022-12-07T04:35:58;99313.31;;;3.38;88.80
66430;BME280;53242;51.694;10.006;2022-12-07T04:38:20;99315.00;;;3.47;88.74
66430;BME280;53242;51.694;10.006;2022-12-07T04:40:43;99309.03;;;3.28;88.59
66430;BME280;53242;51.694;10.006;2022-12-07T04:43:05;99303.53;;;3.40;88.67
66430;BME280;53242;51.694;10.006;2022-12-07T04:45:28;99295.81;;;3.30;88.57
66430;BME280;53242;51.694;10.006;2022-12-07T04:47:50;99300.28;;;3.38;88.46
66430;BME280;53242;51.694;10.006;2022-12-07T04:50:12;99300.50;;;3.26;88.20
66430;BME280;53242;51.694;10.006;2022-12-07T04:52:34;99300.84;;;3.23;88.31
66430;BME280;53242;51.694;10.006;2022-12-07T04:54:57;99305.72;;;3.26;88.01
66430;BME280;53242;51.694;10.006;2022-12-07T04:57:19;99307.16;;;3.21;88.01
66430;BME280;53242;51.694;10.006;2022-12-07T04:59:42;99310.28;;;3.24;87.64
66430;BME280;53242;51.694;10.006;2022-12-07T05:02:04;99308.56;;;3.15;87.67
66430;BME280;53242;51.694;10.006;2022-12-07T05:04:26;99310.53;;;3.13;87.59
66430;BME280;53242;51.694;10.006;2022-12-07T05:06:49;99309.84;;;3.11;87.43
66430;BME280;53242;51.694;10.006;2022-12-07T05:09:11;99308.72;;;3.13;87.43
66430;BME280;53242;51.694;10.006;2022-12-07T05:11:33;99306.44;;;3.10;87.36
66430;BME280;53242;51.694;10.006;2022-12-07T05:14:03;99307.56;;;3.08;87.51
66430;BME280;53242;51.694;10.006;2022-12-07T05:16:26;99309.78;;;3.21;87.52
66430;BME280;53242;51.694;10.006;2022-12-07T05:18:48;99309.81;;;3.29;87.04
66430;BME280;53242;51.694;10.006;2022-12-07T05:21:10;99318.78;;;3.26;87.05
66430;BME280;53242;51.694;10.006;2022-12-07T05:23:33;99311.88;;;3.43;86.76
66430;BME280;53242;51.694;10.006;2022-12-07T05:25:55;99309.88;;;3.37;86.64
66430;BME280;53242;51.694;10.006;2022-12-07T05:28:17;99308.38;;;3.35;86.60
66430;BME280;53242;51.694;10.006;2022-12-07T05:30:40;99312.41;;;3.47;86.63
66430;BME280;53242;51.694;10.006;2022-12-07T05:33:03;99315.44;;;3.42;86.63
66430;BME280;53242;51.694;10.006;2022-12-07T05:35:25;99315.16;;;3.45;86.40
66430;BME280;53242;51.694;10.006;2022-12-07T05:37:48;99309.75;;;3.39;87.05
66430;BME280;53242;51.694;10.006;2022-12-07T05:40:12;99313.72;;;3.51;87.03
66430;BME280;53242;51.694;10.006;2022-12-07T05:42:35;99309.84;;;3.55;86.57
66430;BME280;53242;51.694;10.006;2022-12-07T05:44:57;99309.69;;;3.57;86.80
66430;BME280;53242;51.694;10.006;2022-12-07T05:47:20;99309.19;;;3.53;86.67
66430;BME280;53242;51.694;10.006;2022-12-07T05:49:43;99314.91;;;3.57;86.50
66430;BME280;53242;51.694;10.006;2022-12-07T05:52:05;99306.59;;;3.61;86.46
66430;BME280;53242;51.694;10.006;2022-12-07T05:54:28;99306.81;;;3.68;86.15
66430;BME280;53242;51.694;10.006;2022-12-07T05:56:50;99296.00;;;3.63;86.43
66430;BME280;53242;51.694;10.006;2022-12-07T05:59:13;99301.94;;;3.73;86.23
66430;BME280;53242;51.694;10.006;2022-12-07T06:01:44;99300.09;;;3.66;86.61
66430;BME280;53242;51.694;10.006;2022-12-07T06:04:07;99298.16;;;3.68;86.33
66430;BME280;53242;51.694;10.006;2022-12-07T06:06:29;99299.41;;;3.82;85.73
66430;BME280;53242;51.694;10.006;2022-12-07T06:08:52;99298.44;;;3.83;85.80
66430;BME280;53242;51.694;10.006;2022-12-07T06:11:14;99290.88;;;3.79;85.84
66430;BME280;53242;51.694;10.006;2022-12-07T06:13:55;99292.38;;;3.82;85.60
66430;BME280;53242;51.694;10.006;2022-12-07T06:16:17;99297.06;;;3.78;86.05
66430;BME280;53242;51.694;10.006;2022-12-07T06:18:39;99292.97;;;3.76;86.44
66430;BME280;53242;51.694;10.006;2022-12-07T06:21:02;99296.97;;;3.88;86.04
66430;BME280;53242;51.694;10.006;2022-12-07T06:23:24;99294.38;;;3.88;86.15
66430;BME280;53242;51.694;10.006;2022-12-07T06:25:47;99290.78;;;3.89;86.20
66430;BME280;53242;51.694;10.006;2022-12-07T06:28:09;99286.34;;;3.82;86.66
66430;BME280;53242;51.694;10.006;2022-12-07T06:30:31;99288.78;;;3.83;86.69
66430;BME280;53242;51.694;10.006;2022-12-07T06:32:54;99284.19;;;3.77;87.39
66430;BME280;53242;51.694;10.006;2022-12-07T06:35:16;99282.53;;;3.76;87.48
66430;BME280;53242;51.694;10.006;2022-12-07T06:37:38;99286.97;;;3.75;87.20
66430;BME280;53242;51.694;10.006;2022-12-07T06:40:01;99290.44;;;3.84;87.50
66430;BME280;53242;51.694;10.006;2022-12-07T06:42:23;99293.34;;;3.81;87.63
66430;BME280;53242;51.694;10.006;2022-12-07T06:44:46;99295.13;;;3.81;87.55
66430;BME280;53242;51.694;10.006;2022-12-07T06:47:08;99297.25;;;3.77;87.71
66430;BME280;53242;51.694;10.006;2022-12-07T06:49:31;99295.16;;;3.89;87.46
66430;BME280;53242;51.694;10.006;2022-12-07T06:51:53;99300.19;;;3.82;87.75
66430;BME280;53242;51.694;10.006;2022-12-07T06:54:16;99294.47;;;3.78;87.74
66430;BME280;53242;51.694;10.006;2022-12-07T06:56:39;99293.03;;;3.84;87.78
66430;BME280;53242;51.694;10.006;2022-12-07T06:59:03;99297.91;;;3.79;87.82
66430;BME280;53242;51.694;10.006;2022-12-07T07:01:27;99301.53;;;3.86;87.65
66430;BME280;53242;51.694;10.006;2022-12-07T07:03:49;99298.63;;;3.89;87.24
66430;BME280;53242;51.694;10.006;2022-12-07T07:06:13;99296.28;;;3.86;87.32
66430;BME280;53242;51.694;10.006;2022-12-07T07:08:36;99304.47;;;3.91;87.12
66430;BME280;53242;51.694;10.006;2022-12-07T07:10:58;99307.78;;;3.93;87.10
66430;BME280;53242;51.694;10.006;2022-12-07T07:13:20;99303.50;;;3.84;87.06
66430;BME280;53242;51.694;10.006;2022-12-07T07:15:43;99306.63;;;3.96;86.66
66430;BME280;53242;51.694;10.006;2022-12-07T07:18:06;99303.50;;;3.92;86.85
66430;BME280;53242;51.694;10.006;2022-12-07T07:20:28;99304.28;;;3.85;87.36
66430;BME280;53242;51.694;10.006;2022-12-07T07:22:50;99308.53;;;3.86;87.03
66430;BME280;53242;51.694;10.006;2022-12-07T07:25:15;99307.25;;;3.90;86.90
66430;BME280;53242;51.694;10.006;2022-12-07T07:27:38;99305.34;;;4.00;86.63
66430;BME280;53242;51.694;10.006;2022-12-07T07:30:00;99309.09;;;3.98;86.64
66430;BME280;53242;51.694;10.006;2022-12-07T07:32:22;99312.66;;;3.97;86.69
66430;BME280;53242;51.694;10.006;2022-12-07T07:34:45;99310.53;;;3.92;86.53
66430;BME280;53242;51.694;10.006;2022-12-07T07:37:07;99312.91;;;4.11;86.14
66430;BME280;53242;51.694;10.006;2022-12-07T07:39:29;99307.66;;;4.03;86.31
66430;BME280;53242;51.694;10.006;2022-12-07T07:41:52;99310.63;;;4.08;86.09
66430;BME280;53242;51.694;10.006;2022-12-07T07:44:21;99313.59;;;4.14;86.06
66430;BME280;53242;51.694;10.006;2022-12-07T07:46:43;99315.97;;;4.07;85.94
66430;BME280;53242;51.694;10.006;2022-12-07T07:49:06;99314.97;;;4.00;86.40
66430;BME280;53242;51.694;10.006;2022-12-07T07:51:28;99321.50;;;3.95;86.52
66430;BME280;53242;51.694;10.006;2022-12-07T07:53:50;99310.63;;;4.08;86.34
66430;BME280;53242;51.694;10.006;2022-12-07T07:56:13;99321.16;;;3.90;86.86
66430;BME280;53242;51.694;10.006;2022-12-07T07:58:35;99316.13;;;4.05;86.65
66430;BME280;53242;51.694;10.006;2022-12-07T08:01:03;99317.88;;;3.97;86.49
66430;BME280;53242;51.694;10.006;2022-12-07T08:03:27;99318.66;;;3.89;86.99
66430;BME280;53242;51.694;10.006;2022-12-07T08:05:49;99321.38;;;4.05;86.43
66430;BME280;53242;51.694;10.006;2022-12-07T08:08:11;99325.09;;;4.03;86.16
66430;BME280;53242;51.694;10.006;2022-12-07T08:10:34;99321.53;;;4.12;85.98
66430;BME280;53242;51.694;10.006;2022-12-07T08:12:57;99317.53;;;3.91;86.12
66430;BME280;53242;51.694;10.006;2022-12-07T08:15:37;99324.59;;;3.99;86.20
66430;BME280;53242;51.694;10.006;2022-12-07T08:18:00;99327.38;;;3.98;86.30
66430;BME280;53242;51.694;10.006;2022-12-07T08:20:22;99328.03;;;3.73;87.15
66430;BME280;53242;51.694;10.006;2022-12-07T08:22:45;99329.41;;;3.77;86.19
66430;BME280;53242;51.694;10.006;2022-12-07T08:25:07;99328.56;;;3.77;86.21
66430;BME280;53242;51.694;10.006;2022-12-07T08:27:30;99333.78;;;3.77;86.14
66430;BME280;53242;51.694;10.006;2022-12-07T08:29:52;99329.88;;;3.81;86.19
66430;BME280;53242;51.694;10.006;2022-12-07T08:32:14;99332.47;;;3.73;86.49
66430;BME280;53242;51.694;10.006;2022-12-07T08:34:37;99335.09;;;3.81;86.18
66430;BME280;53242;51.694;10.006;2022-12-07T08:36:59;99336.47;;;3.85;86.42
66430;BME280;53242;51.694;10.006;2022-12-07T08:39:21;99331.94;;;3.95;86.25
66430;BME280;53242;51.694;10.006;2022-12-07T08:41:44;99336.84;;;3.99;86.45
66430;BME280;53242;51.694;10.006;2022-12-07T08:44:06;99338.31;;;4.01;86.34
66430;BME280;53242;51.694;10.006;2022-12-07T08:49:12;99342.09;;;4.07;85.97
66430;BME280;53242;51.694;10.006;2022-12-07T08:51:35;99349.00;;;4.16;85.67
66430;BME280;53242;51.694;10.006;2022-12-07T08:54:00;99347.22;;;4.17;85.54
66430;BME280;53242;51.694;10.006;2022-12-07T08:56:23;99346.16;;;4.44;84.98
66430;BME280;53242;51.694;10.006;2022-12-07T08:58:47;99340.75;;;4.29;85.29
66430;BME280;53242;51.694;10.006;2022-12-07T09:01:09;99333.44;;;4.41;84.69
66430;BME280;53242;51.694;10.006;2022-12-07T09:03:32;99338.38;;;4.52;84.53
66430;BME280;53242;51.694;10.006;2022-12-07T09:05:54;99335.41;;;4.47;84.56
66430;BME280;53242;51.694;10.006;2022-12-07T09:08:17;99334.41;;;4.40;84.78
66430;BME280;53242;51.694;10.006;2022-12-07T09:10:39;99333.56;;;4.31;84.96
66430;BME280;53242;51.694;10.006;2022-12-07T09:13:02;99334.25;;;4.41;84.44
66430;BME280;53242;51.694;10.006;2022-12-07T09:15:24;99333.44;;;4.41;84.72
66430;BME280;53242;51.694;10.006;2022-12-07T09:17:46;99338.16;;;4.37;84.95
66430;BME280;53242;51.694;10.006;2022-12-07T09:20:09;99332.81;;;4.64;84.19
66430;BME280;53242;51.694;10.006;2022-12-07T09:22:32;99334.50;;;4.73;83.70
66430;BME280;53242;51.694;10.006;2022-12-07T09:24:55;99339.06;;;4.63;84.03
66430;BME280;53242;51.694;10.006;2022-12-07T09:27:17;99340.03;;;4.61;84.17
66430;BME280;53242;51.694;10.006;2022-12-07T09:29:40;99339.72;;;4.89;83.83
66430;BME280;53242;51.694;10.006;2022-12-07T09:32:03;99347.06;;;4.77;83.60
66430;BME280;53242;51.694;10.006;2022-12-07T09:34:25;99353.09;;;4.61;84.00
66430;BME280;53242;51.694;10.006;2022-12-07T09:36:48;99353.72;;;4.55;83.58
66430;BME280;53242;51.694;10.006;2022-12-07T09:39:11;99343.28;;;4.55;83.42
66430;BME280;53242;51.694;10.006;2022-12-07T09:41:37;99350.06;;;4.40;83.67
66430;BME280;53242;51.694;10.006;2022-12-07T09:44:09;99346.50;;;4.41;83.12
66430;BME280;53242;51.694;10.006;2022-12-07T09:46:34;99350.16;;;4.22;83.63
66430;BME280;53242;51.694;10.006;2022-12-07T09:48:57;99343.84;;;4.33;83.71
66430;BME280;53242;51.694;10.006;2022-12-07T09:51:22;99344.28;;;4.20;84.30
66430;BME280;53242;51.694;10.006;2022-12-07T09:53:46;99349.81;;;4.17;84.08
66430;BME280;53242;51.694;10.006;2022-12-07T09:56:12;99338.09;;;4.21;83.73
66430;BME280;53242;51.694;10.006;2022-12-07T09:58:35;99340.16;;;4.09;84.40
66430;BME280;53242;51.694;10.006;2022-12-07T10:03:29;99342.97;;;4.16;84.53
66430;BME280;53242;51.694;10.006;2022-12-07T10:05:52;99336.50;;;4.28;84.39
66430;BME280;53242;51.694;10.006;2022-12-07T10:08:15;99336.16;;;4.31;84.21
66430;BME280;53242;51.694;10.006;2022-12-07T10:10:41;99335.00;;;4.25;84.86
66430;BME280;53242;51.694;10.006;2022-12-07T10:13:09;99337.28;;;4.20;84.97
66430;BME280;53242;51.694;10.006;2022-12-07T10:15:54;99332.66;;;4.14;84.92
66430;BME280;53242;51.694;10.006;2022-12-07T10:21:01;99343.34;;;3.94;85.68
66430;BME280;53242;51.694;10.006;2022-12-07T10:23:25;99345.00;;;3.95;86.27
66430;BME280;53242;51.694;10.006;2022-12-07T10:25:47;99343.50;;;3.93;86.07
66430;BME280;53242;51.694;10.006;2022-12-07T10:28:15;99342.09;;;3.72;86.76
66430;BME280;53242;51.694;10.006;2022-12-07T10:31:20;99332.47;;;3.73;87.22
66430;BME280;53242;51.694;10.006;2022-12-07T10:33:54;99334.25;;;3.72;86.94
66430;BME280;53242;51.694;10.006;2022-12-07T10:39:11;99331.28;;;3.93;86.53
66430;BME280;53242;51.694;10.006;2022-12-07T10:41:34;99331.47;;;4.00;86.17
66430;BME280;53242;51.694;10.006;2022-12-07T10:43:57;99328.66;;;3.93;86.56
66430;BME280;53242;51.694;10.006;2022-12-07T10:49:11;99320.22;;;4.00;86.69
66430;BME280;53242;51.694;10.006;2022-12-07T10:51:47;99319.88;;;4.03;86.51
66430;BME280;53242;51.694;10.006;2022-12-07T10:56:56;99323.34;;;4.11;86.38
66430;BME280;53242;51.694;10.006;2022-12-07T11:02:23;99322.97;;;4.41;85.37
66430;BME280;53242;51.694;10.006;2022-12-07T11:07:39;99319.69;;;4.31;85.30
66430;BME280;53242;51.694;10.006;2022-12-07T11:20:12;99325.41;;;4.34;83.74
66430;BME280;53242;51.694;10.006;2022-12-07T11:22:55;99311.56;;;4.42;82.95
66430;BME280;53242;51.694;10.006;2022-12-07T11:27:58;99317.53;;;4.26;82.56
66430;BME280;53242;51.694;10.006;2022-12-07T11:30:39;99306.78;;;4.37;82.23
66430;BME280;53242;51.694;10.006;2022-12-07T11:33:19;99305.13;;;4.28;82.05
66430;BME280;53242;51.694;10.006;2022-12-07T11:38:42;99298.16;;;4.37;81.97
66430;BME280;53242;51.694;10.006;2022-12-07T11:41:06;99298.34;;;4.52;82.03
66430;BME280;53242;51.694;10.006;2022-12-07T11:43:35;99292.13;;;4.53;82.58
66430;BME280;53242;51.694;10.006;2022-12-07T11:46:12;99297.53;;;4.51;82.52
66430;BME280;53242;51.694;10.006;2022-12-07T11:48:46;99290.31;;;4.53;81.65
66430;BME280;53242;51.694;10.006;2022-12-07T11:51:10;99278.44;;;4.59;81.48
66430;BME280;53242;51.694;10.006;2022-12-07T11:56:27;99282.84;;;4.75;80.79
66430;BME280;53242;51.694;10.006;2022-12-07T11:59:10;99279.56;;;4.65;81.05
66430;BME280;53242;51.694;10.006;2022-12-07T12:06:31;99279.25;;;4.84;80.08
66430;BME280;53242;51.694;10.006;2022-12-07T12:09:25;99268.63;;;4.77;80.38
66430;BME280;53242;51.694;10.006;2022-12-07T12:12:07;99269.63;;;4.85;80.49
66430;BME280;53242;51.694;10.006;2022-12-07T12:15:26;99267.31;;;4.82;80.04
66430;BME280;53242;51.694;10.006;2022-12-07T12:17:52;99270.44;;;4.77;80.19
66430;BME280;53242;51.694;10.006;2022-12-07T12:20:41;99273.69;;;4.71;80.17
66430;BME280;53242;51.694;10.006;2022-12-07T12:25:50;99276.28;;;4.54;80.26
66430;BME280;53242;51.694;10.006;2022-12-07T12:31:16;99275.78;;;4.51;79.60
66430;BME280;53242;51.694;10.006;2022-12-07T12:33:56;99280.88;;;4.52;79.85
66430;BME280;53242;51.694;10.006;2022-12-07T12:43:58;99252.28;;;4.67;80.03
66430;BME280;53242;51.694;10.006;2022-12-07T12:49:19;99248.22;;;4.89;78.99
66430;BME280;53242;51.694;10.006;2022-12-07T12:51:35;99242.81;;;4.99;79.10
66430;BME280;53242;51.694;10.006;2022-12-07T12:54:05;99241.19;;;4.98;79.43
66430;BME280;53242;51.694;10.006;2022-12-07T12:59:36;99229.72;;;5.07;79.38
66430;BME280;53242;51.694;10.006;2022-12-07T13:02:24;99235.31;;;4.88;80.03
66430;BME280;53242;51.694;10.006;2022-12-07T13:12:43;99235.31;;;4.80;80.09
66430;BME280;53242;51.694;10.006;2022-12-07T13:15:32;99228.44;;;4.78;80.12
66430;BME280;53242;51.694;10.006;2022-12-07T13:17:57;99237.75;;;4.81;80.34
66430;BME280;53242;51.694;10.006;2022-12-07T13:20:43;99225.50;;;4.57;81.19
66430;BME280;53242;51.694;10.006;2022-12-07T13:23:06;99229.88;;;4.48;81.47
66430;BME280;53242;51.694;10.006;2022-12-07T13:25:41;99223.38;;;4.60;81.04
66430;BME280;53242;51.694;10.006;2022-12-07T13:28:12;99232.66;;;4.38;81.62
66430;BME280;53242;51.694;10.006;2022-12-07T13:30:46;99226.00;;;4.52;81.45
66430;BME280;53242;51.694;10.006;2022-12-07T13:33:09;99227.75;;;4.35;81.99
66430;BME280;53242;51.694;10.006;2022-12-07T13:35:37;99226.78;;;4.36;81.46
66430;BME280;53242;51.694;10.006;2022-12-07T13:38:02;99220.72;;;4.27;81.98
66430;BME280;53242;51.694;10.006;2022-12-07T13:40:26;99229.22;;;4.30;81.94
66430;BME280;53242;51.694;10.006;2022-12-07T13:42:57;99228.75;;;4.42;81.32
66430;BME280;53242;51.694;10.006;2022-12-07T13:48:05;99225.63;;;4.39;81.59
66430;BME280;53242;51.694;10.006;2022-12-07T13:50:31;99226.94;;;4.26;82.32
66430;BME280;53242;51.694;10.006;2022-12-07T13:52:59;99232.97;;;4.35;82.00
66430;BME280;53242;51.694;10.006;2022-12-07T13:55:21;99233.28;;;4.24;81.90
66430;BME280;53242;51.694;10.006;2022-12-07T13:57:46;99229.53;;;4.35;81.44
66430;BME280;53242;51.694;10.006;2022-12-07T14:00:23;99228.75;;;4.34;81.69
66430;BME280;53242;51.694;10.006;2022-12-07T14:05:35;99219.59;;;4.38;81.32
66430;BME280;53242;51.694;10.006;2022-12-07T14:08:45;99213.88;;;4.43;81.07
66430;BME280;53242;51.694;10.006;2022-12-07T14:13:32;99213.38;;;4.31;81.59
66430;BME280;53242;51.694;10.006;2022-12-07T14:15:58;99209.28;;;4.20;81.62
66430;BME280;53242;51.694;10.006;2022-12-07T14:18:29;99204.41;;;4.34;81.32
66430;BME280;53242;51.694;10.006;2022-12-07T14:21:23;99211.22;;;4.18;81.67
66430;BME280;53242;51.694;10.006;2022-12-07T14:24:04;99213.88;;;4.26;81.82
66430;BME280;53242;51.694;10.006;2022-12-07T14:26:29;99207.69;;;4.36;81.58
66430;BME280;53242;51.694;10.006;2022-12-07T14:28:52;99207.47;;;4.21;82.11
66430;BME280;53242;51.694;10.006;2022-12-07T14:31:17;99204.22;;;4.27;82.16
66430;BME280;53242;51.694;10.006;2022-12-07T14:33:40;99198.84;;;4.20;82.39